sensor_id;sensor_type;location;lat;lon;timestamp;pressure;altitude;pressure_sealevel;temperature;humidity
8051;BME280;4068;42.158;24.732;2023-03-04T00:01:44;99803.88;;;3.12;100.00
8051;BME280;4068;42.158;24.732;2023-03-04T00:04:10;99803.13;;;3.10;100.00
8051;BME280;4068;42.158;24.732;2023-03-04T00:06:35;99769.00;;;2.92;100.00
8051;BME280;4068;42.158;24.732;2023-03-04T00:09:01;99798.88;;;3.07;100.00
8051;BME280;4068;42.158;24.732;2023-03-04T00:11:29;99782.78;;;2.96;100.00
8051;BME280;4068;42.158;24.732;2023-03-04T00:13:55;99805.59;;;3.13;100.00
8051;BME280;4068;42.158;24.732;2023-03-04T00:16:21;99779.91;;;3.02;100.00
8051;BME280;4068;42.158;24.732;2023-03-04T00:18:46;99796.97;;;3.11;100.00
8051;BME280;4068;42.158;24.732;2023-03-04T00:21:12;99777.06;;;3.07;100.00
8051;BME280;4068;42.158;24.732;2023-03-04T00:23:37;99788.16;;;3.12;100.00
8051;BME280;4068;42.158;24.732;2023-03-04T00:26:05;99794.28;;;3.13;100.00
8051;BME280;4068;42.158;24.732;2023-03-04T00:28:32;99796.97;;;3.11;100.00
8051;BME280;4068;42.158;24.732;2023-03-04T00:30:57;99800.50;;;3.10;100.00
8051;BME280;4068;42.158;24.732;2023-03-04T00:33:22;99797.03;;;3.09;100.00
8051;BME280;4068;42.158;24.732;2023-03-04T00:35:48;99793.69;;;3.06;100.00
8051;BME280;4068;42.158;24.732;2023-03-04T00:38:13;99760.63;;;2.84;100.00
8051;BME280;4068;42.158;24.732;2023-03-04T00:40:39;99789.66;;;2.99;100.00
8051;BME280;4068;42.158;24.732;2023-03-04T00:43:04;99788.66;;;3.01;100.00
8051;BME280;4068;42.158;24.732;2023-03-04T00:45:30;99758.91;;;2.83;100.00
8051;BME280;4068;42.158;24.732;2023-03-04T00:47:55;99761.28;;;2.89;100.00
8051;BME280;4068;42.158;24.732;2023-03-04T00:50:20;99783.56;;;2.98;100.00
8051;BME280;4068;42.158;24.732;2023-03-04T00:52:46;99787.84;;;3.01;100.00
8051;BME280;4068;42.158;24.732;2023-03-04T00:55:11;99737.72;;;2.69;100.00
8051;BME280;4068;42.158;24.732;2023-03-04T00:57:37;99787.88;;;2.99;100.00
8051;BME280;4068;42.158;24.732;2023-03-04T01:00:03;99788.88;;;2.97;100.00
8051;BME280;4068;42.158;24.732;2023-03-04T01:02:29;99786.38;;;2.93;100.00
8051;BME280;4068;42.158;24.732;2023-03-04T01:04:54;99777.16;;;2.85;100.00
8051;BME280;4068;42.158;24.732;2023-03-04T01:07:19;99794.53;;;2.87;100.00
8051;BME280;4068;42.158;24.732;2023-03-04T01:09:45;99770.50;;;2.78;100.00
8051;BME280;4068;42.158;24.732;2023-03-04T01:12:11;99757.91;;;2.67;100.00
8051;BME280;4068;42.158;24.732;2023-03-04T01:14:36;99744.22;;;2.60;100.00
8051;BME280;4068;42.158;24.732;2023-03-04T01:17:02;99762.28;;;2.66;100.00
8051;BME280;4068;42.158;24.732;2023-03-04T01:19:27;99778.44;;;2.76;100.00
8051;BME280;4068;42.158;24.732;2023-03-04T01:21:52;99773.63;;;2.86;100.00
8051;BME280;4068;42.158;24.732;2023-03-04T01:24:18;99763.88;;;2.89;100.00
8051;BME280;4068;42.158;24.732;2023-03-04T01:26:43;99764.81;;;2.88;100.00
8051;BME280;4068;42.158;24.732;2023-03-04T01:29:09;99760.47;;;2.87;100.00
8051;BME280;4068;42.158;24.732;2023-03-04T01:31:34;99768.25;;;2.89;100.00
8051;BME280;4068;42.158;24.732;2023-03-04T01:34:00;99735.94;;;2.69;100.00
8051;BME280;4068;42.158;24.732;2023-03-04T01:36:25;99766.53;;;2.88;100.00
8051;BME280;4068;42.158;24.732;2023-03-04T01:38:51;99761.31;;;2.88;100.00
8051;BME280;4068;42.158;24.732;2023-03-04T01:41:18;99754.47;;;2.85;100.00
8051;BME280;4068;42.158;24.732;2023-03-04T01:43:46;99761.19;;;2.91;100.00
8051;BME280;4068;42.158;24.732;2023-03-04T01:46:11;99758.50;;;2.92;100.00
8051;BME280;4068;42.158;24.732;2023-03-04T01:48:39;99757.56;;;2.93;100.00
8051;BME280;4068;42.158;24.732;2023-03-04T01:51:11;99753.88;;;2.98;100.00
8051;BME280;4068;42.158;24.732;2023-03-04T01:53:37;99725.78;;;2.82;100.00
8051;BME280;4068;42.158;24.732;2023-03-04T01:56:11;99751.78;;;3.06;100.00
8051;BME280;4068;42.158;24.732;2023-03-04T01:58:38;99746.53;;;3.06;100.00
8051;BME280;4068;42.158;24.732;2023-03-04T02:03:48;99752.34;;;3.13;100.00
8051;BME280;4068;42.158;24.732;2023-03-04T02:06:13;99737.09;;;3.02;100.00
8051;BME280;4068;42.158;24.732;2023-03-04T02:11:23;99735.63;;;3.15;100.00
8051;BME280;4068;42.158;24.732;2023-03-04T02:13:48;99740.22;;;3.29;100.00
8051;BME280;4068;42.158;24.732;2023-03-04T02:16:14;99741.84;;;3.32;100.00
8051;BME280;4068;42.158;24.732;2023-03-04T02:18:39;99728.97;;;3.27;100.00
8051;BME280;4068;42.158;24.732;2023-03-04T02:26:41;99712.00;;;3.34;100.00
8051;BME280;4068;42.158;24.732;2023-03-04T02:29:09;99747.13;;;3.49;100.00
8051;BME280;4068;42.158;24.732;2023-03-04T02:34:06;99743.59;;;3.50;100.00
8051;BME280;4068;42.158;24.732;2023-03-04T02:36:35;99736.63;;;3.49;100.00
8051;BME280;4068;42.158;24.732;2023-03-04T02:39:05;99732.97;;;3.34;100.00
8051;BME280;4068;42.158;24.732;2023-03-04T02:41:32;99733.13;;;3.31;100.00
8051;BME280;4068;42.158;24.732;2023-03-04T02:43:58;99698.44;;;3.07;100.00
8051;BME280;4068;42.158;24.732;2023-03-04T02:46:24;99732.44;;;3.08;100.00
8051;BME280;4068;42.158;24.732;2023-03-04T02:48:50;99733.66;;;3.01;100.00
8051;BME280;4068;42.158;24.732;2023-03-04T02:51:16;99725.78;;;2.82;100.00
8051;BME280;4068;42.158;24.732;2023-03-04T02:53:42;99682.16;;;2.62;100.00
8051;BME280;4068;42.158;24.732;2023-03-04T02:56:07;99721.31;;;2.84;100.00
8051;BME280;4068;42.158;24.732;2023-03-04T02:58:33;99718.91;;;2.80;100.00
8051;BME280;4068;42.158;24.732;2023-03-04T03:00:58;99720.59;;;2.81;100.00
8051;BME280;4068;42.158;24.732;2023-03-04T03:03:24;99730.75;;;2.88;100.00
8051;BME280;4068;42.158;24.732;2023-03-04T03:05:49;99737.03;;;2.84;100.00
8051;BME280;4068;42.158;24.732;2023-03-04T03:08:15;99719.19;;;2.73;100.00
8051;BME280;4068;42.158;24.732;2023-03-04T03:10:41;99713.72;;;2.59;100.00
8051;BME280;4068;42.158;24.732;2023-03-04T03:13:06;99740.50;;;2.66;100.00
8051;BME280;4068;42.158;24.732;2023-03-04T03:15:32;99727.78;;;2.56;100.00
8051;BME280;4068;42.158;24.732;2023-03-04T03:17:57;99728.22;;;2.47;100.00
8051;BME280;4068;42.158;24.732;2023-03-04T03:20:23;99742.66;;;2.56;100.00
8051;BME280;4068;42.158;24.732;2023-03-04T03:22:48;99746.41;;;2.50;100.00
8051;BME280;4068;42.158;24.732;2023-03-04T03:25:15;99737.84;;;2.47;100.00
8051;BME280;4068;42.158;24.732;2023-03-04T03:27:41;99754.91;;;2.55;100.00
8051;BME280;4068;42.158;24.732;2023-03-04T03:30:09;99757.31;;;2.60;100.00
8051;BME280;4068;42.158;24.732;2023-03-04T03:32:35;99730.53;;;2.34;100.00
8051;BME280;4068;42.158;24.732;2023-03-04T03:35:01;99764.50;;;2.55;100.00
8051;BME280;4068;42.158;24.732;2023-03-04T03:37:26;99763.00;;;2.49;100.00
8051;BME280;4068;42.158;24.732;2023-03-04T03:39:51;99763.47;;;2.59;100.00
8051;BME280;4068;42.158;24.732;2023-03-04T03:42:17;99726.50;;;2.46;100.00
8051;BME280;4068;42.158;24.732;2023-03-04T03:44:42;99756.97;;;2.68;100.00
8051;BME280;4068;42.158;24.732;2023-03-04T03:47:08;99718.72;;;2.45;100.00
8051;BME280;4068;42.158;24.732;2023-03-04T03:49:33;99705.53;;;2.27;100.00
8051;BME280;4068;42.158;24.732;2023-03-04T03:51:58;99750.94;;;2.47;100.00
8051;BME280;4068;42.158;24.732;2023-03-04T03:54:24;99750.63;;;2.34;100.00
8051;BME280;4068;42.158;24.732;2023-03-04T03:56:49;99743.53;;;2.36;100.00
8051;BME280;4068;42.158;24.732;2023-03-04T03:59:16;99749.16;;;2.27;100.00
8051;BME280;4068;42.158;24.732;2023-03-04T04:01:41;99748.72;;;2.17;100.00
8051;BME280;4068;42.158;24.732;2023-03-04T04:04:07;99743.50;;;2.17;100.00
8051;BME280;4068;42.158;24.732;2023-03-04T04:06:32;99744.13;;;2.22;100.00
8051;BME280;4068;42.158;24.732;2023-03-04T04:08:58;99747.69;;;2.21;100.00
8051;BME280;4068;42.158;24.732;2023-03-04T04:11:23;99740.53;;;2.24;100.00
8051;BME280;4068;42.158;24.732;2023-03-04T04:13:48;99737.84;;;2.26;100.00
8051;BME280;4068;42.158;24.732;2023-03-04T04:16:14;99735.03;;;2.31;100.00
8051;BME280;4068;42.158;24.732;2023-03-04T04:18:39;99710.31;;;2.17;100.00
8051;BME280;4068;42.158;24.732;2023-03-04T04:21:05;99748.84;;;2.34;100.00
8051;BME280;4068;42.158;24.732;2023-03-04T04:23:31;99749.69;;;2.35;100.00
8051;BME280;4068;42.158;24.732;2023-03-04T04:25:56;99752.47;;;2.51;100.00
8051;BME280;4068;42.158;24.732;2023-03-04T04:28:23;99752.44;;;2.52;100.00
8051;BME280;4068;42.158;24.732;2023-03-04T04:30:49;99745.69;;;2.47;100.00
8051;BME280;4068;42.158;24.732;2023-03-04T04:33:15;99767.03;;;2.58;100.00
8051;BME280;4068;42.158;24.732;2023-03-04T04:35:40;99765.84;;;2.65;100.00
8051;BME280;4068;42.158;24.732;2023-03-04T04:38:06;99768.25;;;2.70;100.00
8051;BME280;4068;42.158;24.732;2023-03-04T04:40:32;99763.69;;;2.73;100.00
8051;BME280;4068;42.158;24.732;2023-03-04T04:42:57;99762.56;;;2.79;100.00
8051;BME280;4068;42.158;24.732;2023-03-04T04:45:23;99760.38;;;2.70;100.00
8051;BME280;4068;42.158;24.732;2023-03-04T04:47:50;99759.47;;;2.71;100.00
8051;BME280;4068;42.158;24.732;2023-03-04T04:50:16;99760.03;;;2.78;100.00
8051;BME280;4068;42.158;24.732;2023-03-04T04:52:41;99773.78;;;2.83;100.00
8051;BME280;4068;42.158;24.732;2023-03-04T04:55:07;99772.66;;;2.88;100.00
8051;BME280;4068;42.158;24.732;2023-03-04T04:57:33;99756.91;;;2.69;100.00
8051;BME280;4068;42.158;24.732;2023-03-04T04:59:58;99747.06;;;2.55;100.00
8051;BME280;4068;42.158;24.732;2023-03-04T05:02:24;99781.09;;;2.55;100.00
8051;BME280;4068;42.158;24.732;2023-03-04T05:04:49;99777.94;;;2.47;100.00
8051;BME280;4068;42.158;24.732;2023-03-04T05:07:15;99774.50;;;2.47;100.00
8051;BME280;4068;42.158;24.732;2023-03-04T05:09:40;99782.53;;;2.42;100.00
8051;BME280;4068;42.158;24.732;2023-03-04T05:12:06;99786.91;;;2.41;100.00
8051;BME280;4068;42.158;24.732;2023-03-04T05:14:31;99783.84;;;2.52;100.00
8051;BME280;4068;42.158;24.732;2023-03-04T05:16:57;99784.97;;;2.47;100.00
8051;BME280;4068;42.158;24.732;2023-03-04T05:19:22;99785.00;;;2.45;100.00
8051;BME280;4068;42.158;24.732;2023-03-04T05:21:47;99784.31;;;2.41;100.00
8051;BME280;4068;42.158;24.732;2023-03-04T05:24:13;99771.78;;;2.28;100.00
8051;BME280;4068;42.158;24.732;2023-03-04T05:26:38;99792.03;;;2.45;100.00
8051;BME280;4068;42.158;24.732;2023-03-04T05:29:04;99773.38;;;2.32;100.00
8051;BME280;4068;42.158;24.732;2023-03-04T05:31:29;99803.28;;;2.26;100.00
8051;BME280;4068;42.158;24.732;2023-03-04T05:33:55;99795.88;;;2.36;100.00
8051;BME280;4068;42.158;24.732;2023-03-04T05:36:21;99798.09;;;2.24;100.00
8051;BME280;4068;42.158;24.732;2023-03-04T05:38:46;99786.88;;;2.00;100.00
8051;BME280;4068;42.158;24.732;2023-03-04T05:41:12;99784.69;;;2.12;100.00
8051;BME280;4068;42.158;24.732;2023-03-04T05:43:37;99780.81;;;2.20;100.00
8051;BME280;4068;42.158;24.732;2023-03-04T05:46:07;99777.16;;;2.24;100.00
8051;BME280;4068;42.158;24.732;2023-03-04T05:48:33;99777.84;;;2.30;100.00
8051;BME280;4068;42.158;24.732;2023-03-04T05:51:00;99797.66;;;2.35;100.00
8051;BME280;4068;42.158;24.732;2023-03-04T05:53:26;99813.94;;;2.42;100.00
8051;BME280;4068;42.158;24.732;2023-03-04T05:55:52;99796.72;;;2.57;100.00
8051;BME280;4068;42.158;24.732;2023-03-04T05:58:18;99799.53;;;2.73;100.00
8051;BME280;4068;42.158;24.732;2023-03-04T06:00:44;99768.97;;;2.53;100.00
8051;BME280;4068;42.158;24.732;2023-03-04T06:03:22;99804.88;;;2.90;100.00
8051;BME280;4068;42.158;24.732;2023-03-04T06:05:47;99787.41;;;2.91;100.00
8051;BME280;4068;42.158;24.732;2023-03-04T06:08:13;99809.78;;;2.98;100.00
8051;BME280;4068;42.158;24.732;2023-03-04T06:10:39;99801.63;;;3.04;100.00
8051;BME280;4068;42.158;24.732;2023-03-04T06:13:05;99771.59;;;2.92;100.00
8051;BME280;4068;42.158;24.732;2023-03-04T06:15:31;99816.75;;;3.18;100.00
8051;BME280;4068;42.158;24.732;2023-03-04T06:17:56;99816.88;;;3.15;100.00
8051;BME280;4068;42.158;24.732;2023-03-04T06:20:22;99819.22;;;3.21;100.00
8051;BME280;4068;42.158;24.732;2023-03-04T06:22:47;99816.81;;;3.36;100.00
8051;BME280;4068;42.158;24.732;2023-03-04T06:25:13;99798.53;;;3.34;100.00
8051;BME280;4068;42.158;24.732;2023-03-04T06:27:39;99784.59;;;3.34;100.00
8051;BME280;4068;42.158;24.732;2023-03-04T06:30:05;99818.28;;;3.41;100.00
8051;BME280;4068;42.158;24.732;2023-03-04T06:32:30;99805.41;;;3.37;100.00
8051;BME280;4068;42.158;24.732;2023-03-04T06:34:56;99828.22;;;3.54;100.00
8051;BME280;4068;42.158;24.732;2023-03-04T06:37:21;99828.41;;;3.68;100.00
8051;BME280;4068;42.158;24.732;2023-03-04T06:39:47;99835.19;;;3.91;100.00
8051;BME280;4068;42.158;24.732;2023-03-04T06:42:13;99836.44;;;4.02;100.00
8051;BME280;4068;42.158;24.732;2023-03-04T06:44:38;99817.13;;;4.03;100.00
8051;BME280;4068;42.158;24.732;2023-03-04T06:47:04;99830.97;;;4.41;100.00
8051;BME280;4068;42.158;24.732;2023-03-04T06:49:29;99836.69;;;4.49;100.00
8051;BME280;4068;42.158;24.732;2023-03-04T06:51:55;99835.38;;;4.58;100.00
8051;BME280;4068;42.158;24.732;2023-03-04T06:54:21;99843.78;;;4.82;100.00
8051;BME280;4068;42.158;24.732;2023-03-04T06:56:46;99838.81;;;4.94;100.00
8051;BME280;4068;42.158;24.732;2023-03-04T06:59:12;99849.91;;;5.16;100.00
8051;BME280;4068;42.158;24.732;2023-03-04T07:01:37;99846.13;;;5.54;100.00
8051;BME280;4068;42.158;24.732;2023-03-04T07:04:03;99850.88;;;5.79;100.00
8051;BME280;4068;42.158;24.732;2023-03-04T07:06:29;99846.56;;;5.62;100.00
8051;BME280;4068;42.158;24.732;2023-03-04T07:08:54;99848.75;;;5.70;100.00
8051;BME280;4068;42.158;24.732;2023-03-04T07:11:21;99836.97;;;5.77;100.00
8051;BME280;4068;42.158;24.732;2023-03-04T07:13:47;99812.50;;;5.91;100.00
8051;BME280;4068;42.158;24.732;2023-03-04T07:16:15;99845.22;;;6.33;100.00
8051;BME280;4068;42.158;24.732;2023-03-04T07:18:42;99852.16;;;6.50;100.00
8051;BME280;4068;42.158;24.732;2023-03-04T07:21:08;99836.25;;;6.52;100.00
8051;BME280;4068;42.158;24.732;2023-03-04T07:23:34;99849.56;;;6.34;100.00
8051;BME280;4068;42.158;24.732;2023-03-04T07:26:00;99849.53;;;6.50;100.00
8051;BME280;4068;42.158;24.732;2023-03-04T07:28:25;99836.69;;;6.74;100.00
8051;BME280;4068;42.158;24.732;2023-03-04T07:30:51;99848.53;;;6.82;100.00
8051;BME280;4068;42.158;24.732;2023-03-04T07:33:16;99844.13;;;6.82;100.00
8051;BME280;4068;42.158;24.732;2023-03-04T07:35:42;99852.78;;;6.84;100.00
8051;BME280;4068;42.158;24.732;2023-03-04T07:38:07;99829.53;;;6.91;100.00
8051;BME280;4068;42.158;24.732;2023-03-04T07:40:33;99818.72;;;6.96;100.00
8051;BME280;4068;42.158;24.732;2023-03-04T07:42:58;99837.28;;;7.08;100.00
8051;BME280;4068;42.158;24.732;2023-03-04T07:45:24;99837.72;;;7.01;100.00
8051;BME280;4068;42.158;24.732;2023-03-04T07:47:50;99819.94;;;7.04;100.00
8051;BME280;4068;42.158;24.732;2023-03-04T07:50:15;99828.75;;;7.32;100.00
8051;BME280;4068;42.158;24.732;2023-03-04T07:52:46;99831.13;;;7.37;100.00
8051;BME280;4068;42.158;24.732;2023-03-04T07:55:14;99797.97;;;7.33;100.00
8051;BME280;4068;42.158;24.732;2023-03-04T07:57:41;99825.94;;;7.35;100.00
8051;BME280;4068;42.158;24.732;2023-03-04T08:00:07;99839.72;;;7.26;100.00
8051;BME280;4068;42.158;24.732;2023-03-04T08:02:33;99822.16;;;7.39;100.00
8051;BME280;4068;42.158;24.732;2023-03-04T08:04:58;99828.66;;;7.63;100.00
8051;BME280;4068;42.158;24.732;2023-03-04T08:07:24;99829.47;;;7.63;100.00
8051;BME280;4068;42.158;24.732;2023-03-04T08:09:49;99835.69;;;7.62;100.00
8051;BME280;4068;42.158;24.732;2023-03-04T08:12:15;99821.44;;;7.23;100.00
8051;BME280;4068;42.158;24.732;2023-03-04T08:14:40;99816.34;;;7.34;100.00
8051;BME280;4068;42.158;24.732;2023-03-04T08:17:06;99800.63;;;7.18;100.00
8051;BME280;4068;42.158;24.732;2023-03-04T08:19:31;99821.31;;;7.39;100.00
8051;BME280;4068;42.158;24.732;2023-03-04T08:21:57;99830.16;;;7.52;100.00
8051;BME280;4068;42.158;24.732;2023-03-04T08:24:22;99836.81;;;7.72;100.00
8051;BME280;4068;42.158;24.732;2023-03-04T08:26:49;99843.94;;;7.85;100.00
8051;BME280;4068;42.158;24.732;2023-03-04T08:29:19;99825.00;;;7.78;100.00
8051;BME280;4068;42.158;24.732;2023-03-04T08:31:46;99831.25;;;7.77;100.00
8051;BME280;4068;42.158;24.732;2023-03-04T08:34:12;99812.66;;;7.78;100.00
8051;BME280;4068;42.158;24.732;2023-03-04T08:36:42;99827.84;;;8.02;100.00
8051;BME280;4068;42.158;24.732;2023-03-04T08:39:08;99836.84;;;8.40;100.00
8051;BME280;4068;42.158;24.732;2023-03-04T08:41:35;99846.09;;;8.47;100.00
8051;BME280;4068;42.158;24.732;2023-03-04T08:44:01;99843.03;;;8.26;100.00
8051;BME280;4068;42.158;24.732;2023-03-04T08:46:27;99849.91;;;8.56;100.00
8051;BME280;4068;42.158;24.732;2023-03-04T08:48:53;99853.75;;;8.77;100.00
8051;BME280;4068;42.158;24.732;2023-03-04T08:51:18;99851.09;;;9.03;100.00
8051;BME280;4068;42.158;24.732;2023-03-04T08:53:44;99855.88;;;9.24;100.00
8051;BME280;4068;42.158;24.732;2023-03-04T08:56:11;99845.38;;;9.35;100.00
8051;BME280;4068;42.158;24.732;2023-03-04T08:58:37;99861.13;;;9.49;100.00
8051;BME280;4068;42.158;24.732;2023-03-04T09:01:03;99857.09;;;9.57;100.00
8051;BME280;4068;42.158;24.732;2023-03-04T09:03:29;99832.63;;;9.53;100.00
8051;BME280;4068;42.158;24.732;2023-03-04T09:05:54;99814.34;;;9.74;100.00
8051;BME280;4068;42.158;24.732;2023-03-04T09:08:20;99816.91;;;9.26;100.00
8051;BME280;4068;42.158;24.732;2023-03-04T09:10:46;99825.53;;;9.54;100.00
8051;BME280;4068;42.158;24.732;2023-03-04T09:13:12;99825.81;;;9.62;100.00
8051;BME280;4068;42.158;24.732;2023-03-04T09:15:46;99826.69;;;9.87;100.00
8051;BME280;4068;42.158;24.732;2023-03-04T09:18:12;99813.84;;;10.29;100.00
8051;BME280;4068;42.158;24.732;2023-03-04T09:20:38;99820.22;;;10.39;100.00
8051;BME280;4068;42.158;24.732;2023-03-04T09:23:04;99810.44;;;10.15;100.00
8051;BME280;4068;42.158;24.732;2023-03-04T09:25:29;99815.63;;;10.17;100.00
8051;BME280;4068;42.158;24.732;2023-03-04T09:27:55;99786.28;;;10.31;100.00
8051;BME280;4068;42.158;24.732;2023-03-04T09:30:20;99805.69;;;10.56;100.00
8051;BME280;4068;42.158;24.732;2023-03-04T09:32:46;99810.16;;;10.78;100.00
8051;BME280;4068;42.158;24.732;2023-03-04T09:35:11;99811.13;;;10.77;100.00
8051;BME280;4068;42.158;24.732;2023-03-04T09:37:37;99809.44;;;10.76;100.00
8051;BME280;4068;42.158;24.732;2023-03-04T09:40:03;99801.63;;;10.75;100.00
8051;BME280;4068;42.158;24.732;2023-03-04T09:42:37;99803.44;;;11.31;100.00
8051;BME280;4068;42.158;24.732;2023-03-04T09:45:07;99795.81;;;11.60;100.00
8051;BME280;4068;42.158;24.732;2023-03-04T09:47:34;99784.94;;;11.52;98.96
8051;BME280;4068;42.158;24.732;2023-03-04T09:50:06;99799.38;;;11.82;99.76
8051;BME280;4068;42.158;24.732;2023-03-04T09:55:42;99795.56;;;11.52;100.00
8051;BME280;4068;42.158;24.732;2023-03-04T10:01:24;99756.34;;;11.33;100.00
8051;BME280;4068;42.158;24.732;2023-03-04T10:04:21;99780.38;;;11.86;100.00
8051;BME280;4068;42.158;24.732;2023-03-04T10:06:50;99784.22;;;12.05;99.11
8051;BME280;4068;42.158;24.732;2023-03-04T10:09:53;99785.44;;;12.01;98.34
8051;BME280;4068;42.158;24.732;2023-03-04T10:12:23;99778.41;;;11.56;99.34
8051;BME280;4068;42.158;24.732;2023-03-04T10:15:06;99774.22;;;11.86;100.00
8051;BME280;4068;42.158;24.732;2023-03-04T10:17:44;99752.00;;;11.54;100.00
8051;BME280;4068;42.158;24.732;2023-03-04T10:20:25;99770.66;;;12.08;100.00
8051;BME280;4068;42.158;24.732;2023-03-04T10:23:07;99742.03;;;12.12;97.30
8051;BME280;4068;42.158;24.732;2023-03-04T10:25:34;99765.38;;;12.29;96.52
8051;BME280;4068;42.158;24.732;2023-03-04T10:28:16;99736.41;;;11.94;96.50
8051;BME280;4068;42.158;24.732;2023-03-04T10:30:56;99765.66;;;11.94;97.47
8051;BME280;4068;42.158;24.732;2023-03-04T10:33:27;99752.69;;;11.56;100.00
8051;BME280;4068;42.158;24.732;2023-03-04T10:38:41;99750.63;;;12.04;99.93
8051;BME280;4068;42.158;24.732;2023-03-04T10:41:19;99706.31;;;11.61;100.00
8051;BME280;4068;42.158;24.732;2023-03-04T10:46:23;99730.38;;;11.48;100.00
8051;BME280;4068;42.158;24.732;2023-03-04T10:48:48;99699.81;;;11.53;100.00
8051;BME280;4068;42.158;24.732;2023-03-04T10:51:25;99728.66;;;12.02;100.00
8051;BME280;4068;42.158;24.732;2023-03-04T10:56:41;99714.97;;;12.28;100.00
8051;BME280;4068;42.158;24.732;2023-03-04T10:59:29;99718.53;;;12.38;99.16
8051;BME280;4068;42.158;24.732;2023-03-04T11:01:56;99696.16;;;12.40;99.69
8051;BME280;4068;42.158;24.732;2023-03-04T11:04:23;99703.25;;;12.61;98.59
8051;BME280;4068;42.158;24.732;2023-03-04T11:06:50;99713.44;;;12.77;98.77
8051;BME280;4068;42.158;24.732;2023-03-04T11:09:24;99699.56;;;12.83;96.18
8051;BME280;4068;42.158;24.732;2023-03-04T11:11:52;99698.41;;;13.07;96.40
8051;BME280;4068;42.158;24.732;2023-03-04T11:14:24;99693.34;;;12.63;95.99
8051;BME280;4068;42.158;24.732;2023-03-04T11:16:59;99673.28;;;12.90;98.36
8051;BME280;4068;42.158;24.732;2023-03-04T11:19:37;99664.50;;;13.19;96.09
8051;BME280;4068;42.158;24.732;2023-03-04T11:22:04;99662.91;;;13.47;93.79
8051;BME280;4068;42.158;24.732;2023-03-04T11:24:33;99665.69;;;13.65;93.78
8051;BME280;4068;42.158;24.732;2023-03-04T11:27:07;99631.91;;;13.66;90.71
8051;BME280;4068;42.158;24.732;2023-03-04T11:29:37;99665.16;;;13.81;90.73
8051;BME280;4068;42.158;24.732;2023-03-04T11:32:17;99666.78;;;13.92;92.33
8051;BME280;4068;42.158;24.732;2023-03-04T11:34:51;99666.81;;;13.82;91.80
8051;BME280;4068;42.158;24.732;2023-03-04T11:37:28;99644.91;;;13.98;90.90
8051;BME280;4068;42.158;24.732;2023-03-04T11:40:00;99659.88;;;14.19;91.26
8051;BME280;4068;42.158;24.732;2023-03-04T11:42:52;99646.72;;;13.97;88.68
8051;BME280;4068;42.158;24.732;2023-03-04T11:50:53;99634.44;;;13.57;88.87
8051;BME280;4068;42.158;24.732;2023-03-04T12:01:41;99635.84;;;13.61;86.43
8051;BME280;4068;42.158;24.732;2023-03-04T12:04:33;99629.63;;;13.80;87.42
8051;BME280;4068;42.158;24.732;2023-03-04T12:27:17;99611.63;;;14.02;85.72
8051;BME280;4068;42.158;24.732;2023-03-04T12:29:56;99612.28;;;14.24;84.04
8051;BME280;4068;42.158;24.732;2023-03-04T12:37:41;99603.59;;;14.12;82.87
8051;BME280;4068;42.158;24.732;2023-03-04T12:58:48;99558.34;;;14.58;79.99
8051;BME280;4068;42.158;24.732;2023-03-04T13:07:06;99545.31;;;15.00;76.63
8051;BME280;4068;42.158;24.732;2023-03-04T13:12:21;99544.09;;;14.77;79.16
8051;BME280;4068;42.158;24.732;2023-03-04T13:20:24;99549.75;;;15.28;76.59
8051;BME280;4068;42.158;24.732;2023-03-04T13:23:01;99539.44;;;15.33;76.08
8051;BME280;4068;42.158;24.732;2023-03-04T13:32:56;99525.84;;;14.17;81.03
8051;BME280;4068;42.158;24.732;2023-03-04T13:41:23;99522.66;;;14.03;81.57
8051;BME280;4068;42.158;24.732;2023-03-04T13:56:32;99502.50;;;13.14;88.14
8051;BME280;4068;42.158;24.732;2023-03-04T13:59:12;99496.75;;;13.09;88.59
8051;BME280;4068;42.158;24.732;2023-03-04T14:04:17;99492.94;;;12.72;89.41
8051;BME280;4068;42.158;24.732;2023-03-04T14:06:44;99493.53;;;12.76;87.81
8051;BME280;4068;42.158;24.732;2023-03-04T14:09:24;99480.50;;;12.63;88.81
8051;BME280;4068;42.158;24.732;2023-03-04T14:11:53;99443.66;;;12.39;89.16
8051;BME280;4068;42.158;24.732;2023-03-04T14:17:17;99465.03;;;12.28;90.15
8051;BME280;4068;42.158;24.732;2023-03-04T14:19:45;99474.16;;;12.45;91.08
8051;BME280;4068;42.158;24.732;2023-03-04T14:22:27;99476.53;;;12.48;92.97
8051;BME280;4068;42.158;24.732;2023-03-04T14:27:24;99476.72;;;12.85;91.91
8051;BME280;4068;42.158;24.732;2023-03-04T14:30:04;99471.28;;;12.77;91.31
8051;BME280;4068;42.158;24.732;2023-03-04T14:32:31;99462.16;;;12.70;91.20
8051;BME280;4068;42.158;24.732;2023-03-04T14:35:00;99423.75;;;12.33;92.69
8051;BME280;4068;42.158;24.732;2023-03-04T14:37:35;99451.06;;;12.55;92.99
8051;BME280;4068;42.158;24.732;2023-03-04T14:40:05;99457.38;;;12.64;92.02
8051;BME280;4068;42.158;24.732;2023-03-04T14:42:38;99438.88;;;12.42;91.46
8051;BME280;4068;42.158;24.732;2023-03-04T14:45:06;99443.81;;;12.57;91.89
8051;BME280;4068;42.158;24.732;2023-03-04T14:47:40;99441.78;;;12.30;92.92
8051;BME280;4068;42.158;24.732;2023-03-04T14:50:14;99446.19;;;12.50;92.36
8051;BME280;4068;42.158;24.732;2023-03-04T14:52:42;99442.69;;;12.59;92.25
8051;BME280;4068;42.158;24.732;2023-03-04T14:55:24;99436.66;;;12.57;92.37
8051;BME280;4068;42.158;24.732;2023-03-04T14:58:21;99434.97;;;12.56;92.26
8051;BME280;4068;42.158;24.732;2023-03-04T15:00:47;99415.06;;;12.31;92.78
8051;BME280;4068;42.158;24.732;2023-03-04T15:03:23;99434.97;;;12.27;93.01
8051;BME280;4068;42.158;24.732;2023-03-04T15:05:49;99420.09;;;12.15;93.83
8051;BME280;4068;42.158;24.732;2023-03-04T15:08:36;99432.91;;;12.00;94.62
8051;BME280;4068;42.158;24.732;2023-03-04T15:11:06;99413.25;;;11.81;95.57
8051;BME280;4068;42.158;24.732;2023-03-04T15:14:15;99420.25;;;11.82;96.01
8051;BME280;4068;42.158;24.732;2023-03-04T15:16:54;99425.56;;;11.82;96.46
8051;BME280;4068;42.158;24.732;2023-03-04T15:19:26;99422.31;;;11.69;95.76
8051;BME280;4068;42.158;24.732;2023-03-04T15:22:02;99408.09;;;11.49;97.68
8051;BME280;4068;42.158;24.732;2023-03-04T15:24:28;99427.25;;;11.52;98.13
8051;BME280;4068;42.158;24.732;2023-03-04T15:26:53;99410.69;;;11.39;98.18
8051;BME280;4068;42.158;24.732;2023-03-04T15:29:19;99382.88;;;11.12;98.38